createdAt,value
2023-05-14T00:00:17.584Z,100684.19
2023-05-14T00:06:19.350Z,100702.97
2023-05-14T00:12:21.113Z,100652.00
2023-05-14T00:18:23.139Z,100677.59
2023-05-14T00:24:28.002Z,100562.41
2023-05-14T00:30:30.064Z,100427.91
2023-05-14T00:36:32.564Z,100656.56
2023-05-14T00:42:43.963Z,100714.19
2023-05-14T00:48:47.533Z,100713.41
2023-05-14T00:54:53.044Z,100641.88
2023-05-14T01:00:55.588Z,100637.28
2023-05-14T01:07:09.073Z,100706.00
2023-05-14T01:13:39.651Z,100689.16
2023-05-14T01:19:53.072Z,100586.09
2023-05-14T01:26:04.636Z,100655.41
2023-05-14T01:32:11.212Z,100708.94
2023-05-14T01:38:18.691Z,100723.81
2023-05-14T01:44:25.911Z,100660.31
2023-05-14T01:50:30.670Z,100557.13
2023-05-14T01:56:33.147Z,100589.28
2023-05-14T02:02:36.684Z,100665.38
2023-05-14T02:08:41.054Z,100660.94
2023-05-14T02:14:46.561Z,100699.44
2023-05-14T02:20:49.026Z,100663.13
2023-05-14T02:26:53.910Z,100523.34
2023-05-14T02:32:57.031Z,100687.38
2023-05-14T02:39:02.421Z,100501.34
2023-05-14T02:45:06.833Z,100736.19
2023-05-14T02:51:12.439Z,100726.88
2023-05-14T02:57:14.826Z,100717.97
2023-05-14T03:03:17.390Z,100678.53
2023-05-14T03:09:22.785Z,100722.81
2023-05-14T03:15:26.181Z,100708.91
2023-05-14T03:21:33.770Z,100528.75
2023-05-14T03:27:36.262Z,100733.75
2023-05-14T03:33:41.723Z,100664.66
2023-05-14T03:39:44.208Z,100626.00
2023-05-14T03:45:52.878Z,100661.78
2023-05-14T03:51:55.249Z,100742.09
2023-05-14T03:58:17.316Z,100751.84
2023-05-14T04:04:29.358Z,100707.84
2023-05-14T04:10:42.073Z,100764.63
2023-05-14T04:16:50.365Z,100628.50
2023-05-14T04:23:02.432Z,100521.31
2023-05-14T04:29:08.676Z,100732.00
2023-05-14T04:35:11.774Z,100750.03
2023-05-14T04:41:30.786Z,100657.69
2023-05-14T04:47:33.871Z,100711.75
2023-05-14T04:53:35.826Z,100746.38
2023-05-14T04:59:41.758Z,100750.94
2023-05-14T05:05:44.254Z,100724.47
2023-05-14T05:11:49.718Z,100657.50
2023-05-14T05:18:02.160Z,100733.81
2023-05-14T05:24:09.061Z,100673.78
2023-05-14T05:30:12.186Z,100592.16
2023-05-14T05:36:14.638Z,100673.81
2023-05-14T05:42:17.108Z,100734.50
2023-05-14T05:48:22.639Z,100663.69
2023-05-14T05:54:40.430Z,100509.72
2023-05-14T06:00:49.955Z,100736.28
2023-05-14T06:06:52.130Z,100661.63
2023-05-14T06:12:54.554Z,100736.06
2023-05-14T06:18:57.067Z,100728.53
2023-05-14T06:25:20.931Z,100732.59
2023-05-14T06:31:23.082Z,100615.13
2023-05-14T06:37:31.151Z,100510.66
2023-05-14T06:43:51.406Z,100607.00
2023-05-14T06:49:53.573Z,100733.16
2023-05-14T06:55:57.007Z,100648.84
2023-05-14T07:01:59.567Z,100582.63
2023-05-14T07:08:25.058Z,100503.84
2023-05-14T07:14:29.822Z,100606.97
2023-05-14T07:20:46.034Z,100602.50
2023-05-14T07:26:59.854Z,100515.66
2023-05-14T07:33:09.557Z,100683.75
2023-05-14T07:39:37.687Z,100603.69
2023-05-14T07:45:45.540Z,100571.97
2023-05-14T07:51:47.658Z,100626.84
2023-05-14T07:57:58.961Z,100593.47
2023-05-14T08:04:03.777Z,100643.72
2023-05-14T08:10:09.095Z,100664.94
2023-05-14T08:16:11.585Z,100656.06
2023-05-14T08:22:15.090Z,100656.22
2023-05-14T08:28:27.839Z,100652.06
2023-05-14T08:34:40.247Z,100537.09
2023-05-14T08:40:43.569Z,100628.50
2023-05-14T08:53:10.591Z,100518.59
2023-05-14T08:59:16.117Z,100565.59
2023-05-14T09:05:34.407Z,100514.06
2023-05-14T09:11:51.196Z,100589.44
2023-05-14T09:17:56.882Z,100592.16
2023-05-14T09:24:00.640Z,100504.06
2023-05-14T09:30:18.614Z,100479.38
2023-05-14T09:36:21.126Z,100555.66
2023-05-14T09:42:23.626Z,100581.75
2023-05-14T09:48:27.095Z,100550.22
2023-05-14T09:54:32.804Z,100501.06
2023-05-14T10:00:37.079Z,100557.44
2023-05-14T10:06:54.396Z,100415.50
2023-05-14T10:13:15.358Z,100532.59
2023-05-14T10:19:26.367Z,100523.25
2023-05-14T10:25:31.494Z,100488.84
2023-05-14T10:32:02.152Z,100492.56
2023-05-14T10:38:10.279Z,100501.28
2023-05-14T10:44:16.498Z,100511.50
2023-05-14T10:50:24.427Z,100519.28
2023-05-14T10:56:26.688Z,100488.13
2023-05-14T11:02:33.911Z,100501.53
2023-05-14T11:08:44.944Z,100510.09
2023-05-14T11:14:48.244Z,100507.41
2023-05-14T11:20:53.693Z,100468.31
2023-05-14T11:27:00.217Z,100377.56
2023-05-14T11:33:05.735Z,100453.41
2023-05-14T11:39:12.629Z,100398.09
2023-05-14T11:45:27.716Z,100453.78
2023-05-14T11:51:45.271Z,100438.69
2023-05-14T11:57:47.751Z,100318.16
2023-05-14T12:03:51.300Z,100413.53
2023-05-14T12:09:56.380Z,100422.00
2023-05-14T12:16:07.227Z,100227.75
2023-05-14T12:22:18.822Z,100384.88
2023-05-14T12:28:24.520Z,100391.31
2023-05-14T12:34:33.135Z,100384.91
2023-05-14T12:40:37.197Z,100371.19
2023-05-14T12:46:39.282Z,100260.00
2023-05-14T12:52:41.065Z,100303.09
2023-05-14T12:58:43.201Z,100346.06
2023-05-14T13:04:45.851Z,100336.50
2023-05-14T13:10:48.287Z,100304.28
2023-05-14T13:16:50.122Z,100326.97
2023-05-14T13:22:55.513Z,100333.56
2023-05-14T13:29:01.120Z,100206.09
2023-05-14T13:35:03.543Z,100212.06
2023-05-14T13:41:05.885Z,100193.97
2023-05-14T13:47:10.654Z,100303.63
2023-05-14T13:53:31.364Z,100227.19
2023-05-14T13:59:33.571Z,100267.13
2023-05-14T14:05:38.708Z,100304.13
2023-05-14T14:11:42.541Z,100238.06
2023-05-14T14:17:47.070Z,100305.75
2023-05-14T14:23:49.476Z,100176.75
2023-05-14T14:29:51.943Z,100281.00
2023-05-14T14:36:10.117Z,100281.69
2023-05-14T14:42:21.722Z,100264.03
2023-05-14T14:48:33.555Z,100274.56
2023-05-14T14:54:41.009Z,100227.41
2023-05-14T15:00:46.468Z,100268.38
2023-05-14T15:06:48.973Z,100287.69
2023-05-14T15:12:51.456Z,100223.09
2023-05-14T15:19:03.018Z,100272.44
2023-05-14T15:25:06.374Z,100233.19
2023-05-14T15:31:19.296Z,100172.81
2023-05-14T15:37:22.339Z,100236.28
2023-05-14T15:43:27.855Z,100185.91
2023-05-14T15:49:31.309Z,100182.72
2023-05-14T15:55:39.870Z,100181.88
2023-05-14T16:01:44.345Z,100153.28
2023-05-14T16:07:55.232Z,100203.44
2023-05-14T16:14:00.340Z,100063.06
2023-05-14T16:20:08.808Z,100089.13
2023-05-14T16:26:14.322Z,100064.13
2023-05-14T16:32:16.897Z,100183.41
2023-05-14T16:38:20.318Z,100168.34
2023-05-14T16:44:31.462Z,100127.41
2023-05-14T16:50:34.316Z,100174.19
2023-05-14T16:56:37.747Z,100134.31
2023-05-14T17:02:40.274Z,100174.00
2023-05-14T17:08:42.783Z,100204.09
2023-05-14T17:14:45.275Z,100173.50
2023-05-14T17:20:47.720Z,100238.53
2023-05-14T17:26:50.164Z,100139.81
2023-05-14T17:32:54.650Z,100248.09
2023-05-14T17:38:57.151Z,100218.72
2023-05-14T17:44:59.629Z,100209.47
2023-05-14T17:51:02.162Z,100244.00
2023-05-14T17:57:16.290Z,100233.25
2023-05-14T18:03:22.305Z,100190.84
2023-05-14T18:09:27.709Z,100032.38
2023-05-14T18:15:32.247Z,100049.28
2023-05-14T18:21:40.741Z,100218.34
2023-05-14T18:27:50.473Z,100217.19
2023-05-14T18:34:07.071Z,100186.72
2023-05-14T18:40:18.684Z,100213.25
2023-05-14T18:46:36.962Z,100208.56
2023-05-14T18:52:51.635Z,100226.03
2023-05-14T18:59:11.480Z,100118.63
2023-05-14T19:05:16.333Z,100221.84
2023-05-14T19:11:20.845Z,100225.69
2023-05-14T19:17:33.567Z,100145.16
2023-05-14T19:23:41.883Z,100220.03
2023-05-14T19:29:52.434Z,100226.75
2023-05-14T19:35:57.869Z,100218.78
2023-05-14T19:42:10.409Z,100219.81
2023-05-14T19:48:16.090Z,100085.88
2023-05-14T19:54:21.323Z,100194.63
2023-05-14T20:00:24.160Z,100097.56
2023-05-14T20:06:35.666Z,100181.59
2023-05-14T20:12:43.372Z,99965.75
2023-05-14T20:19:00.374Z,100158.84
2023-05-14T20:25:02.845Z,100070.78
2023-05-14T20:31:11.259Z,100056.94
2023-05-14T20:37:26.220Z,100088.03
2023-05-14T20:43:36.800Z,100115.03
2023-05-14T20:49:57.180Z,100103.31
2023-05-14T20:56:59.417Z,100137.63
2023-05-14T21:03:10.373Z,99997.28
2023-05-14T21:09:39.916Z,100089.84
2023-05-14T21:15:45.156Z,100124.06
2023-05-14T21:22:01.772Z,100121.78
2023-05-14T21:28:40.257Z,100065.75
2023-05-14T21:34:47.852Z,100025.28
2023-05-14T21:41:50.067Z,100104.91
2023-05-14T21:48:03.175Z,99924.78
2023-05-14T21:54:11.661Z,100079.31
2023-05-14T22:00:51.219Z,99922.28
2023-05-14T22:07:10.666Z,99916.59
2023-05-14T22:13:13.265Z,100057.19
2023-05-14T22:26:20.129Z,99907.78
2023-05-14T22:32:46.933Z,99960.78
2023-05-14T22:45:41.699Z,99888.56
2023-05-14T22:51:58.732Z,100023.94
2023-05-14T22:58:01.261Z,99995.72
2023-05-14T23:04:03.746Z,100026.91
2023-05-14T23:10:27.090Z,99943.66
2023-05-14T23:16:36.700Z,100045.19
2023-05-14T23:22:40.266Z,100043.16
2023-05-14T23:28:42.703Z,100036.69
2023-05-14T23:34:48.186Z,100028.94
2023-05-14T23:40:53.667Z,99977.69
2023-05-14T23:46:57.140Z,99939.06
2023-05-14T23:52:59.605Z,100002.03
2023-05-14T23:59:05.034Z,100013.94
